sensor_id;sensor_type;location;lat;lon;timestamp;pressure;altitude;pressure_sealevel;temperature;humidity
44144;BME280;43510;51.920;4.492;2023-01-25T01:14:01;66264.53;;;3.61;93.65
44144;BME280;43510;51.920;4.492;2023-01-25T01:16:27;66266.56;;;3.61;93.28
44144;BME280;43510;51.920;4.492;2023-01-25T01:18:52;66269.88;;;3.64;93.45
44144;BME280;43510;51.920;4.492;2023-01-25T01:21:18;66260.09;;;3.57;93.28
44144;BME280;43510;51.920;4.492;2023-01-25T01:23:44;66266.00;;;3.60;93.54
44144;BME280;43510;51.920;4.492;2023-01-25T01:26:15;66260.28;;;3.53;93.36
44144;BME280;43510;51.920;4.492;2023-01-25T02:15:14;66255.50;;;3.51;93.07
44144;BME280;43510;51.920;4.492;2023-01-25T02:17:40;66248.28;;;3.44;93.79
44144;BME280;43510;51.920;4.492;2023-01-25T02:20:38;66255.09;;;3.53;93.62
44144;BME280;43510;51.920;4.492;2023-01-25T02:25:37;66257.31;;;3.55;93.50
44144;BME280;43510;51.920;4.492;2023-01-25T02:28:08;66270.44;;;3.64;93.08
44144;BME280;43510;51.920;4.492;2023-01-25T02:30:36;66269.31;;;3.63;93.88
44144;BME280;43510;51.920;4.492;2023-01-25T02:33:02;66265.66;;;3.62;93.85
44144;BME280;43510;51.920;4.492;2023-01-25T02:38:15;66258.81;;;3.54;93.44
44144;BME280;43510;51.920;4.492;2023-01-25T02:40:52;66242.19;;;3.39;93.88
44144;BME280;43510;51.920;4.492;2023-01-25T02:43:18;66239.59;;;3.39;94.27
44144;BME280;43510;51.920;4.492;2023-01-25T02:48:19;66263.06;;;3.55;94.07
44144;BME280;43510;51.920;4.492;2023-01-25T02:50:51;66267.13;;;3.61;93.82
44144;BME280;43510;51.920;4.492;2023-01-25T02:53:17;66263.78;;;3.58;93.74
44144;BME280;43510;51.920;4.492;2023-01-25T02:55:42;66251.22;;;3.49;94.10
44144;BME280;43510;51.920;4.492;2023-01-25T02:58:08;66239.03;;;3.38;93.71
44144;BME280;43510;51.920;4.492;2023-01-25T03:00:33;66248.28;;;3.44;93.47
44144;BME280;43510;51.920;4.492;2023-01-25T03:02:59;66242.91;;;3.42;94.10
44144;BME280;43510;51.920;4.492;2023-01-25T03:05:24;66242.19;;;3.39;94.20
44144;BME280;43510;51.920;4.492;2023-01-25T03:07:50;66242.00;;;3.36;94.37
44144;BME280;43510;51.920;4.492;2023-01-25T03:10:17;66237.94;;;3.37;94.67
44144;BME280;43510;51.920;4.492;2023-01-25T03:12:42;66246.44;;;3.40;94.80
44144;BME280;43510;51.920;4.492;2023-01-25T03:15:08;66244.03;;;3.43;93.99
44144;BME280;43510;51.920;4.492;2023-01-25T03:20:09;66243.66;;;3.38;94.27
44144;BME280;43510;51.920;4.492;2023-01-25T03:22:35;66236.66;;;3.34;94.59
44144;BME280;43510;51.920;4.492;2023-01-25T03:25:00;66225.56;;;3.23;94.55
44144;BME280;43510;51.920;4.492;2023-01-25T03:27:28;66226.66;;;3.24;94.84
44144;BME280;43510;51.920;4.492;2023-01-25T03:29:54;66236.81;;;3.36;95.02
44144;BME280;43510;51.920;4.492;2023-01-25T03:37:29;66221.69;;;3.20;94.88
44144;BME280;43510;51.920;4.492;2023-01-25T03:52:51;66216.31;;;3.17;94.70
44144;BME280;43510;51.920;4.492;2023-01-25T03:55:23;66228.88;;;3.26;94.84
44144;BME280;43510;51.920;4.492;2023-01-25T03:57:48;66234.41;;;3.32;94.45
44144;BME280;43510;51.920;4.492;2023-01-25T04:00:15;66238.69;;;3.33;94.68
44144;BME280;43510;51.920;4.492;2023-01-25T04:02:41;66243.84;;;3.40;94.21
44144;BME280;43510;51.920;4.492;2023-01-25T04:05:07;66235.53;;;3.33;94.15
44144;BME280;43510;51.920;4.492;2023-01-25T04:07:35;66242.56;;;3.37;94.59
44144;BME280;43510;51.920;4.492;2023-01-25T04:10:02;66240.69;;;3.40;94.17
44144;BME280;43510;51.920;4.492;2023-01-25T04:12:28;66243.84;;;3.40;93.93
44144;BME280;43510;51.920;4.492;2023-01-25T04:14:53;66237.19;;;3.34;93.91
44144;BME280;43510;51.920;4.492;2023-01-25T04:17:19;66227.41;;;3.27;93.94
44144;BME280;43510;51.920;4.492;2023-01-25T04:19:44;66232.59;;;3.27;93.73
44144;BME280;43510;51.920;4.492;2023-01-25T04:22:10;66225.00;;;3.23;93.96
44144;BME280;43510;51.920;4.492;2023-01-25T04:24:35;66222.97;;;3.23;94.02
44144;BME280;43510;51.920;4.492;2023-01-25T04:27:00;66220.75;;;3.21;94.19
44144;BME280;43510;51.920;4.492;2023-01-25T04:29:26;66234.06;;;3.34;93.39
44144;BME280;43510;51.920;4.492;2023-01-25T04:31:51;66228.31;;;3.26;93.49
44144;BME280;43510;51.920;4.492;2023-01-25T04:34:16;66227.41;;;3.27;93.87
44144;BME280;43510;51.920;4.492;2023-01-25T04:36:42;66229.44;;;3.27;93.33
44144;BME280;43510;51.920;4.492;2023-01-25T04:39:07;66216.50;;;3.13;93.33
44144;BME280;43510;51.920;4.492;2023-01-25T04:46:43;66191.75;;;2.93;94.24
44144;BME280;43510;51.920;4.492;2023-01-25T04:49:08;66178.28;;;2.78;94.15
44144;BME280;43510;51.920;4.492;2023-01-25T05:01:54;66180.88;;;2.85;94.40
44144;BME280;43510;51.920;4.492;2023-01-25T05:04:20;66205.59;;;3.05;94.35
44144;BME280;43510;51.920;4.492;2023-01-25T05:06:47;66199.50;;;3.00;94.46
44144;BME280;43510;51.920;4.492;2023-01-25T05:09:13;66196.38;;;2.99;93.87
44144;BME280;43510;51.920;4.492;2023-01-25T05:11:39;66191.75;;;2.93;93.80
44144;BME280;43510;51.920;4.492;2023-01-25T05:14:06;66200.44;;;2.98;94.44
44144;BME280;43510;51.920;4.492;2023-01-25T05:37:15;66201.91;;;3.04;95.21
44144;BME280;43510;51.920;4.492;2023-01-25T05:39:41;66205.78;;;3.08;95.53
44144;BME280;43510;51.920;4.492;2023-01-25T05:47:17;66213.91;;;3.13;95.38
44144;BME280;43510;51.920;4.492;2023-01-25T05:49:43;66198.41;;;2.99;95.68
44144;BME280;43510;51.920;4.492;2023-01-25T05:52:15;66203.56;;;3.06;95.79
44144;BME280;43510;51.920;4.492;2023-01-25T05:54:44;66216.50;;;3.20;95.06
44144;BME280;43510;51.920;4.492;2023-01-25T05:57:09;66221.28;;;3.22;94.80
44144;BME280;43510;51.920;4.492;2023-01-25T05:59:36;66205.78;;;3.08;94.96
44144;BME280;43510;51.920;4.492;2023-01-25T06:02:01;66199.88;;;3.05;94.84
44144;BME280;43510;51.920;4.492;2023-01-25T06:04:28;66194.53;;;3.02;94.78
44144;BME280;43510;51.920;4.492;2023-01-25T06:06:54;66203.97;;;3.04;94.61
44144;BME280;43510;51.920;4.492;2023-01-25T06:22:16;66192.13;;;2.91;94.87
44144;BME280;43510;51.920;4.492;2023-01-25T06:24:44;66189.72;;;2.93;94.59
44144;BME280;43510;51.920;4.492;2023-01-25T06:27:09;66198.59;;;3.01;94.18
44144;BME280;43510;51.920;4.492;2023-01-25T06:29:36;66199.50;;;3.00;94.10
44144;BME280;43510;51.920;4.492;2023-01-25T06:32:02;66197.31;;;2.98;94.22
44144;BME280;43510;51.920;4.492;2023-01-25T06:34:28;66188.81;;;2.87;94.21
44144;BME280;43510;51.920;4.492;2023-01-25T06:36:54;66189.16;;;2.93;94.88
44144;BME280;43510;51.920;4.492;2023-01-25T06:39:19;66191.75;;;2.93;94.48
44144;BME280;43510;51.920;4.492;2023-01-25T06:41:45;66197.13;;;2.95;94.61
44144;BME280;43510;51.920;4.492;2023-01-25T06:44:26;66189.00;;;2.90;94.16
44144;BME280;43510;51.920;4.492;2023-01-25T06:46:51;66180.31;;;2.84;94.21
44144;BME280;43510;51.920;4.492;2023-01-25T06:49:17;66191.38;;;2.95;94.03
44144;BME280;43510;51.920;4.492;2023-01-25T06:51:49;66202.84;;;3.03;94.04
44144;BME280;43510;51.920;4.492;2023-01-25T06:54:15;66191.19;;;2.92;93.69
44144;BME280;43510;51.920;4.492;2023-01-25T06:56:51;66201.19;;;3.01;94.20
44144;BME280;43510;51.920;4.492;2023-01-25T06:59:16;66196.91;;;3.00;93.53
44144;BME280;43510;51.920;4.492;2023-01-25T07:01:42;66193.59;;;2.97;93.42
44144;BME280;43510;51.920;4.492;2023-01-25T07:04:09;66191.38;;;2.95;94.07
44144;BME280;43510;51.920;4.492;2023-01-25T07:06:46;66182.50;;;2.86;94.18
44144;BME280;43510;51.920;4.492;2023-01-25T07:09:12;66189.53;;;2.98;94.14
44144;BME280;43510;51.920;4.492;2023-01-25T07:11:38;66186.97;;;2.91;94.10
44144;BME280;43510;51.920;4.492;2023-01-25T07:14:04;66197.47;;;3.00;94.37
44144;BME280;43510;51.920;4.492;2023-01-25T07:16:30;66203.22;;;3.01;94.10
44144;BME280;43510;51.920;4.492;2023-01-25T07:19:02;66204.13;;;3.06;94.34
44144;BME280;43510;51.920;4.492;2023-01-25T07:21:28;66190.28;;;2.94;94.69
44144;BME280;43510;51.920;4.492;2023-01-25T07:23:59;66209.50;;;3.09;93.96
44144;BME280;43510;51.920;4.492;2023-01-25T07:26:25;66218.72;;;3.15;94.48
44144;BME280;43510;51.920;4.492;2023-01-25T07:28:51;66208.00;;;3.10;94.26
44144;BME280;43510;51.920;4.492;2023-01-25T07:31:17;66217.22;;;3.16;94.89
44144;BME280;43510;51.920;4.492;2023-01-25T07:33:47;66224.28;;;3.20;94.55
44144;BME280;43510;51.920;4.492;2023-01-25T07:36:13;66220.56;;;3.19;94.12
44144;BME280;43510;51.920;4.492;2023-01-25T07:38:38;66220.00;;;3.18;94.14
44144;BME280;43510;51.920;4.492;2023-01-25T07:41:04;66224.63;;;3.25;94.27
44144;BME280;43510;51.920;4.492;2023-01-25T07:43:30;66220.75;;;3.21;94.43
44144;BME280;43510;51.920;4.492;2023-01-25T07:46:08;66218.34;;;3.17;94.27
44144;BME280;43510;51.920;4.492;2023-01-25T07:48:37;66212.25;;;3.11;94.21
44144;BME280;43510;51.920;4.492;2023-01-25T07:51:05;66218.34;;;3.17;94.52
44144;BME280;43510;51.920;4.492;2023-01-25T07:53:42;66222.03;;;3.18;94.17
44144;BME280;43510;51.920;4.492;2023-01-25T07:56:10;66214.09;;;3.15;93.89
44144;BME280;43510;51.920;4.492;2023-01-25T07:58:36;66217.78;;;3.16;94.96
44144;BME280;43510;51.920;4.492;2023-01-25T08:01:10;66214.09;;;3.15;94.27
44144;BME280;43510;51.920;4.492;2023-01-25T08:03:36;66218.34;;;3.17;94.08
44144;BME280;43510;51.920;4.492;2023-01-25T08:06:13;66217.97;;;3.19;94.19
44144;BME280;43510;51.920;4.492;2023-01-25T08:08:42;66231.47;;;3.26;94.14
44144;BME280;43510;51.920;4.492;2023-01-25T08:11:12;66230.00;;;3.27;94.05
44144;BME280;43510;51.920;4.492;2023-01-25T08:13:43;66230.53;;;3.28;94.24
44144;BME280;43510;51.920;4.492;2023-01-25T08:16:19;66235.72;;;3.35;93.69
44144;BME280;43510;51.920;4.492;2023-01-25T08:18:49;66230.72;;;3.31;94.50
44144;BME280;43510;51.920;4.492;2023-01-25T08:21:18;66242.56;;;3.37;94.33
44144;BME280;43510;51.920;4.492;2023-01-25T08:23:44;66236.09;;;3.33;93.99
44144;BME280;43510;51.920;4.492;2023-01-25T08:26:11;66233.88;;;3.31;93.63
44144;BME280;43510;51.920;4.492;2023-01-25T08:28:44;66232.94;;;3.33;93.78
44144;BME280;43510;51.920;4.492;2023-01-25T08:31:16;66239.97;;;3.37;93.78
44144;BME280;43510;51.920;4.492;2023-01-25T08:33:44;66241.63;;;3.38;93.94
44144;BME280;43510;51.920;4.492;2023-01-25T08:36:11;66249.19;;;3.43;93.66
44144;BME280;43510;51.920;4.492;2023-01-25T08:38:37;66246.25;;;3.45;93.75
44144;BME280;43510;51.920;4.492;2023-01-25T08:41:17;66246.81;;;3.45;93.56
44144;BME280;43510;51.920;4.492;2023-01-25T08:43:56;66255.66;;;3.53;94.11
44144;BME280;43510;51.920;4.492;2023-01-25T08:46:22;66249.00;;;3.47;93.45
44144;BME280;43510;51.920;4.492;2023-01-25T08:48:52;66245.69;;;3.44;93.02
44144;BME280;43510;51.920;4.492;2023-01-25T08:51:18;66258.06;;;3.51;93.55
44144;BME280;43510;51.920;4.492;2023-01-25T08:53:43;66249.00;;;3.47;92.94
44144;BME280;43510;51.920;4.492;2023-01-25T08:56:11;66250.47;;;3.46;93.18
44144;BME280;43510;51.920;4.492;2023-01-25T08:58:39;66247.16;;;3.43;93.19
44144;BME280;43510;51.920;4.492;2023-01-25T09:01:06;66252.72;;;3.48;93.69
44144;BME280;43510;51.920;4.492;2023-01-25T09:03:37;66254.00;;;3.52;93.07
44144;BME280;43510;51.920;4.492;2023-01-25T09:06:04;66255.09;;;3.53;93.13
44144;BME280;43510;51.920;4.492;2023-01-25T09:08:29;66256.78;;;3.54;93.47
44144;BME280;43510;51.920;4.492;2023-01-25T09:11:12;66254.53;;;3.52;93.13
44144;BME280;43510;51.920;4.492;2023-01-25T09:13:38;66256.03;;;3.51;93.41
44144;BME280;43510;51.920;4.492;2023-01-25T09:16:12;66254.19;;;3.54;93.16
44144;BME280;43510;51.920;4.492;2023-01-25T09:18:40;66256.78;;;3.54;92.57
44144;BME280;43510;51.920;4.492;2023-01-25T09:21:12;66253.25;;;3.49;92.93
44144;BME280;43510;51.920;4.492;2023-01-25T09:23:40;66252.50;;;3.46;93.01
44144;BME280;43510;51.920;4.492;2023-01-25T09:26:10;66249.00;;;3.47;93.26
44144;BME280;43510;51.920;4.492;2023-01-25T09:28:36;66256.97;;;3.50;93.29
44144;BME280;43510;51.920;4.492;2023-01-25T09:31:04;66259.91;;;3.55;93.11
44144;BME280;43510;51.920;4.492;2023-01-25T09:33:36;66268.78;;;3.63;93.38
44144;BME280;43510;51.920;4.492;2023-01-25T09:36:02;66271.91;;;3.63;93.23
44144;BME280;43510;51.920;4.492;2023-01-25T09:38:28;66271.19;;;3.67;93.07
44144;BME280;43510;51.920;4.492;2023-01-25T09:46:47;66282.25;;;3.78;93.42
44144;BME280;43510;51.920;4.492;2023-01-25T09:49:18;66287.81;;;3.83;93.90
44144;BME280;43510;51.920;4.492;2023-01-25T09:54:45;66293.19;;;3.85;93.72
44144;BME280;43510;51.920;4.492;2023-01-25T09:57:18;66299.28;;;3.91;93.08
44144;BME280;43510;51.920;4.492;2023-01-25T09:59:47;66292.63;;;3.85;92.44
44144;BME280;43510;51.920;4.492;2023-01-25T10:04:56;66286.53;;;3.79;92.95
44144;BME280;43510;51.920;4.492;2023-01-25T10:07:50;66279.50;;;3.75;93.48
44144;BME280;43510;51.920;4.492;2023-01-25T10:10:26;66273.03;;;3.72;92.79
44144;BME280;43510;51.920;4.492;2023-01-25T10:12:54;66276.91;;;3.68;92.84
44144;BME280;43510;51.920;4.492;2023-01-25T10:15:43;66267.84;;;3.64;92.97
44144;BME280;43510;51.920;4.492;2023-01-25T10:21:07;66279.69;;;3.70;92.95
44144;BME280;43510;51.920;4.492;2023-01-25T10:23:59;66280.03;;;3.76;92.39
44144;BME280;43510;51.920;4.492;2023-01-25T10:26:32;66275.97;;;3.69;92.70
44144;BME280;43510;51.920;4.492;2023-01-25T10:31:57;66260.09;;;3.57;93.00
44144;BME280;43510;51.920;4.492;2023-01-25T10:34:36;66266.38;;;3.58;93.38
44144;BME280;43510;51.920;4.492;2023-01-25T10:37:34;66274.16;;;3.65;92.45
44144;BME280;43510;51.920;4.492;2023-01-25T10:40:14;66269.31;;;3.63;92.75
44144;BME280;43510;51.920;4.492;2023-01-25T10:43:01;66268.78;;;3.63;92.03
44144;BME280;43510;51.920;4.492;2023-01-25T10:45:26;66264.91;;;3.59;92.26
44144;BME280;43510;51.920;4.492;2023-01-25T10:47:59;66260.84;;;3.53;92.24
44144;BME280;43510;51.920;4.492;2023-01-25T10:53:37;66269.31;;;3.63;92.42
44144;BME280;43510;51.920;4.492;2023-01-25T10:56:23;66265.25;;;3.64;92.25
44144;BME280;43510;51.920;4.492;2023-01-25T10:58:51;66264.91;;;3.59;92.72
44144;BME280;43510;51.920;4.492;2023-01-25T11:01:32;66266.94;;;3.59;92.92
44144;BME280;43510;51.920;4.492;2023-01-25T11:04:00;66271.19;;;3.67;92.40
44144;BME280;43510;51.920;4.492;2023-01-25T11:06:35;66279.13;;;3.70;92.15
44144;BME280;43510;51.920;4.492;2023-01-25T11:14:35;66255.66;;;3.53;92.64
44144;BME280;43510;51.920;4.492;2023-01-25T11:17:02;66268.97;;;3.65;92.78
44144;BME280;43510;51.920;4.492;2023-01-25T11:19:35;66270.78;;;3.69;92.93
44144;BME280;43510;51.920;4.492;2023-01-25T11:22:20;66274.50;;;3.70;92.72
44144;BME280;43510;51.920;4.492;2023-01-25T11:24:46;66276.72;;;3.73;93.02
44144;BME280;43510;51.920;4.492;2023-01-25T11:27:19;66282.81;;;3.78;92.76
44144;BME280;43510;51.920;4.492;2023-01-25T11:32:31;66269.31;;;3.63;92.58
44144;BME280;43510;51.920;4.492;2023-01-25T11:34:57;66266.56;;;3.61;92.63
44144;BME280;43510;51.920;4.492;2023-01-25T11:37:58;66263.97;;;3.61;92.72
44144;BME280;43510;51.920;4.492;2023-01-25T11:40:42;66264.53;;;3.61;93.07
44144;BME280;43510;51.920;4.492;2023-01-25T11:46:14;66251.22;;;3.49;92.71
44144;BME280;43510;51.920;4.492;2023-01-25T11:51:32;66250.13;;;3.48;93.02
44144;BME280;43510;51.920;4.492;2023-01-25T12:07:57;66263.22;;;3.58;94.38
44144;BME280;43510;51.920;4.492;2023-01-25T12:21:59;66267.84;;;3.64;93.31
44144;BME280;43510;51.920;4.492;2023-01-25T12:30:22;66245.13;;;3.44;92.40
44144;BME280;43510;51.920;4.492;2023-01-25T12:32:58;66254.19;;;3.47;92.79
44144;BME280;43510;51.920;4.492;2023-01-25T12:35:36;66250.13;;;3.48;93.05
44144;BME280;43510;51.920;4.492;2023-01-25T12:38:11;66248.84;;;3.45;92.58
44144;BME280;43510;51.920;4.492;2023-01-25T12:40:55;66251.59;;;3.47;93.24
44144;BME280;43510;51.920;4.492;2023-01-25T12:43:29;66244.03;;;3.43;92.71
44144;BME280;43510;51.920;4.492;2023-01-25T12:45:58;66248.28;;;3.44;92.60
44144;BME280;43510;51.920;4.492;2023-01-25T12:48:36;66254.75;;;3.48;91.66
44144;BME280;43510;51.920;4.492;2023-01-25T12:51:10;66243.47;;;3.42;91.94
44144;BME280;43510;51.920;4.492;2023-01-25T12:53:40;66238.84;;;3.36;92.96
44144;BME280;43510;51.920;4.492;2023-01-25T12:56:07;66242.00;;;3.36;92.58
44144;BME280;43510;51.920;4.492;2023-01-25T12:58:42;66241.06;;;3.38;92.93
44144;BME280;43510;51.920;4.492;2023-01-25T13:09:22;66255.31;;;3.48;92.06
44144;BME280;43510;51.920;4.492;2023-01-25T13:11:50;66256.56;;;3.52;91.99
44144;BME280;43510;51.920;4.492;2023-01-25T13:16:54;66239.41;;;3.36;92.13
44144;BME280;43510;51.920;4.492;2023-01-25T13:21:56;66249.00;;;3.40;92.60
44144;BME280;43510;51.920;4.492;2023-01-25T13:24:27;66255.50;;;3.51;91.96
44144;BME280;43510;51.920;4.492;2023-01-25T13:31:54;66243.47;;;3.42;92.75
44144;BME280;43510;51.920;4.492;2023-01-25T13:37:02;66244.59;;;3.43;92.85
44144;BME280;43510;51.920;4.492;2023-01-25T13:44:34;66251.78;;;3.50;92.39
44144;BME280;43510;51.920;4.492;2023-01-25T13:47:05;66253.06;;;3.46;92.57
44144;BME280;43510;51.920;4.492;2023-01-25T13:49:49;66253.25;;;3.49;92.44
44144;BME280;43510;51.920;4.492;2023-01-25T13:52:18;66249.00;;;3.47;92.51
44144;BME280;43510;51.920;4.492;2023-01-25T13:54:45;66256.41;;;3.49;92.24
44144;BME280;43510;51.920;4.492;2023-01-25T13:57:33;66252.16;;;3.55;92.19
44144;BME280;43510;51.920;4.492;2023-01-25T14:00:07;66255.66;;;3.53;92.86
44144;BME280;43510;51.920;4.492;2023-01-25T14:02:36;66250.69;;;3.49;92.90
44144;BME280;43510;51.920;4.492;2023-01-25T14:05:03;66248.09;;;3.49;92.80
44144;BME280;43510;51.920;4.492;2023-01-25T14:07:32;66246.06;;;3.42;92.10
44144;BME280;43510;51.920;4.492;2023-01-25T14:10:05;66234.97;;;3.32;92.92
44144;BME280;43510;51.920;4.492;2023-01-25T14:12:38;66237.75;;;3.35;92.92
44144;BME280;43510;51.920;4.492;2023-01-25T14:15:24;66233.31;;;3.31;93.52
44144;BME280;43510;51.920;4.492;2023-01-25T14:18:13;66234.22;;;3.29;93.80
44144;BME280;43510;51.920;4.492;2023-01-25T14:20:43;66238.13;;;3.33;93.76
44144;BME280;43510;51.920;4.492;2023-01-25T14:23:28;66234.97;;;3.32;94.18
44144;BME280;43510;51.920;4.492;2023-01-25T14:25:55;66234.59;;;3.34;94.53
44144;BME280;43510;51.920;4.492;2023-01-25T14:28:24;66235.34;;;3.30;94.76
44144;BME280;43510;51.920;4.492;2023-01-25T14:30:52;66252.72;;;3.48;94.40
44144;BME280;43510;51.920;4.492;2023-01-25T14:33:23;66249.56;;;3.48;94.51
44144;BME280;43510;51.920;4.492;2023-01-25T14:35:52;66258.44;;;3.56;94.06
44144;BME280;43510;51.920;4.492;2023-01-25T14:38:19;66268.97;;;3.65;94.46
44144;BME280;43510;51.920;4.492;2023-01-25T14:40:46;66262.50;;;3.55;94.69
44144;BME280;43510;51.920;4.492;2023-01-25T14:43:12;66266.38;;;3.65;94.83
44144;BME280;43510;51.920;4.492;2023-01-25T14:45:38;66282.63;;;3.76;94.17
44144;BME280;43510;51.920;4.492;2023-01-25T14:49:04;66279.88;;;3.73;94.14
44144;BME280;43510;51.920;4.492;2023-01-25T14:51:27;66285.78;;;3.76;93.97
44144;BME280;43510;51.920;4.492;2023-01-25T14:54:03;66274.16;;;3.65;94.20
44144;BME280;43510;51.920;4.492;2023-01-25T14:56:42;66283.38;;;3.79;94.11
44144;BME280;43510;51.920;4.492;2023-01-25T14:59:28;66290.97;;;3.83;94.54
44144;BME280;43510;51.920;4.492;2023-01-25T15:01:58;66286.16;;;3.81;94.22
44144;BME280;43510;51.920;4.492;2023-01-25T15:04:25;66289.28;;;3.82;94.62
44144;BME280;43510;51.920;4.492;2023-01-25T15:06:59;66282.63;;;3.76;94.11
44144;BME280;43510;51.920;4.492;2023-01-25T15:14:58;66273.94;;;3.70;94.82
44144;BME280;43510;51.920;4.492;2023-01-25T15:17:35;66266.75;;;3.63;95.09
44144;BME280;43510;51.920;4.492;2023-01-25T15:20:00;66273.03;;;3.64;95.11
44144;BME280;43510;51.920;4.492;2023-01-25T15:22:26;66263.78;;;3.58;95.11
44144;BME280;43510;51.920;4.492;2023-01-25T15:24:51;66259.72;;;3.59;95.58
44144;BME280;43510;51.920;4.492;2023-01-25T15:27:17;66265.66;;;3.55;95.13
44144;BME280;43510;51.920;4.492;2023-01-25T15:29:42;66256.03;;;3.51;95.38
44144;BME280;43510;51.920;4.492;2023-01-25T15:32:17;66244.59;;;3.43;95.85
44144;BME280;43510;51.920;4.492;2023-01-25T15:34:45;66255.31;;;3.48;96.18
44144;BME280;43510;51.920;4.492;2023-01-25T15:37:11;66250.88;;;3.44;95.83
44144;BME280;43510;51.920;4.492;2023-01-25T15:39:36;66249.19;;;3.43;96.22
44144;BME280;43510;51.920;4.492;2023-01-25T15:42:02;66243.66;;;3.38;96.12
44144;BME280;43510;51.920;4.492;2023-01-25T15:44:38;66247.72;;;3.44;96.53
44144;BME280;43510;51.920;4.492;2023-01-25T15:47:04;66233.31;;;3.31;96.72
44144;BME280;43510;51.920;4.492;2023-01-25T15:49:29;66242.91;;;3.42;96.71
44144;BME280;43510;51.920;4.492;2023-01-25T15:52:05;66265.81;;;3.58;96.86
44144;BME280;43510;51.920;4.492;2023-01-25T15:54:30;66268.03;;;3.60;97.11
44144;BME280;43510;51.920;4.492;2023-01-25T15:56:57;66255.09;;;3.53;97.12
44144;BME280;43510;51.920;4.492;2023-01-25T15:59:23;66240.16;;;3.39;97.14
44144;BME280;43510;51.920;4.492;2023-01-25T16:01:49;66251.59;;;3.47;97.36
44144;BME280;43510;51.920;4.492;2023-01-25T16:04:14;66263.97;;;3.61;97.15
44144;BME280;43510;51.920;4.492;2023-01-25T16:09:12;66277.28;;;3.73;96.67
44144;BME280;43510;51.920;4.492;2023-01-25T16:11:42;66264.91;;;3.59;97.30
44144;BME280;43510;51.920;4.492;2023-01-25T16:14:08;66271.56;;;3.65;96.88
44144;BME280;43510;51.920;4.492;2023-01-25T16:16:36;66265.28;;;3.57;96.91
44144;BME280;43510;51.920;4.492;2023-01-25T16:19:03;66258.44;;;3.56;97.22
44144;BME280;43510;51.920;4.492;2023-01-25T16:21:28;66259.34;;;3.54;96.71
44144;BME280;43510;51.920;4.492;2023-01-25T16:23:53;66242.19;;;3.39;97.60
44144;BME280;43510;51.920;4.492;2023-01-25T16:26:24;66243.47;;;3.42;97.45
44144;BME280;43510;51.920;4.492;2023-01-25T16:28:50;66239.41;;;3.36;97.89
44144;BME280;43510;51.920;4.492;2023-01-25T16:31:16;66220.75;;;3.21;98.20
44144;BME280;43510;51.920;4.492;2023-01-25T16:33:42;66232.38;;;3.32;98.02
44144;BME280;43510;51.920;4.492;2023-01-25T16:36:22;66234.59;;;3.34;98.82
44144;BME280;43510;51.920;4.492;2023-01-25T16:38:51;66236.66;;;3.34;98.46
44144;BME280;43510;51.920;4.492;2023-01-25T16:41:17;66239.78;;;3.34;98.43
44144;BME280;43510;51.920;4.492;2023-01-25T16:43:44;66233.69;;;3.28;98.56
44144;BME280;43510;51.920;4.492;2023-01-25T16:46:21;66225.00;;;3.23;98.60
44144;BME280;43510;51.920;4.492;2023-01-25T16:48:52;66225.19;;;3.25;98.59
44144;BME280;43510;51.920;4.492;2023-01-25T16:51:25;66224.28;;;3.20;98.36
44144;BME280;43510;51.920;4.492;2023-01-25T16:53:53;66231.47;;;3.26;98.85
44144;BME280;43510;51.920;4.492;2023-01-25T16:56:41;66225.00;;;3.23;99.18
44144;BME280;43510;51.920;4.492;2023-01-25T16:59:12;66222.22;;;3.20;99.09
44144;BME280;43510;51.920;4.492;2023-01-25T17:01:37;66216.88;;;3.18;99.24
44144;BME280;43510;51.920;4.492;2023-01-25T17:04:08;66220.22;;;3.14;99.50
44144;BME280;43510;51.920;4.492;2023-01-25T17:06:37;66211.69;;;3.11;99.64
44144;BME280;43510;51.920;4.492;2023-01-25T17:09:13;66201.91;;;3.04;99.60
44144;BME280;43510;51.920;4.492;2023-01-25T17:11:53;66192.13;;;2.91;99.78
44144;BME280;43510;51.920;4.492;2023-01-25T17:14:20;66198.78;;;2.97;100.00
44144;BME280;43510;51.920;4.492;2023-01-25T17:16:46;66193.59;;;2.97;100.00
44144;BME280;43510;51.920;4.492;2023-01-25T17:19:24;66191.38;;;2.95;100.00
44144;BME280;43510;51.920;4.492;2023-01-25T17:21:49;66192.13;;;2.91;100.00
44144;BME280;43510;51.920;4.492;2023-01-25T17:24:19;66193.06;;;2.96;100.00
44144;BME280;43510;51.920;4.492;2023-01-25T17:26:45;66198.03;;;2.94;100.00
44144;BME280;43510;51.920;4.492;2023-01-25T17:29:11;66198.03;;;2.94;100.00
44144;BME280;43510;51.920;4.492;2023-01-25T17:31:38;66195.63;;;2.96;100.00
44144;BME280;43510;51.920;4.492;2023-01-25T17:34:06;66192.31;;;2.93;100.00
44144;BME280;43510;51.920;4.492;2023-01-25T17:36:44;66193.06;;;2.89;100.00
44144;BME280;43510;51.920;4.492;2023-01-25T17:39:12;66188.25;;;2.87;100.00
44144;BME280;43510;51.920;4.492;2023-01-25T17:41:43;66194.34;;;2.93;100.00
44144;BME280;43510;51.920;4.492;2023-01-25T17:44:20;66202.47;;;2.98;100.00
44144;BME280;43510;51.920;4.492;2023-01-25T17:46:47;66205.59;;;3.05;100.00
44144;BME280;43510;51.920;4.492;2023-01-25T17:49:16;66202.28;;;3.02;100.00
44144;BME280;43510;51.920;4.492;2023-01-25T17:51:45;66194.72;;;2.98;100.00
44144;BME280;43510;51.920;4.492;2023-01-25T17:54:11;66198.94;;;2.99;100.00
44144;BME280;43510;51.920;4.492;2023-01-25T17:56:38;66199.50;;;3.00;100.00
44144;BME280;43510;51.920;4.492;2023-01-25T17:59:13;66192.13;;;2.91;100.00
44144;BME280;43510;51.920;4.492;2023-01-25T18:01:39;66189.53;;;2.91;100.00
44144;BME280;43510;51.920;4.492;2023-01-25T18:04:08;66184.53;;;2.86;100.00
44144;BME280;43510;51.920;4.492;2023-01-25T18:06:48;66195.44;;;2.94;100.00
44144;BME280;43510;51.920;4.492;2023-01-25T18:09:13;66193.06;;;2.96;100.00
44144;BME280;43510;51.920;4.492;2023-01-25T18:11:38;66190.81;;;2.94;100.00
44144;BME280;43510;51.920;4.492;2023-01-25T18:14:07;66194.72;;;2.98;100.00
44144;BME280;43510;51.920;4.492;2023-01-25T18:16:35;66190.28;;;2.94;100.00
44144;BME280;43510;51.920;4.492;2023-01-25T18:19:01;66178.84;;;2.85;100.00
44144;BME280;43510;51.920;4.492;2023-01-25T18:21:29;66172.56;;;2.77;100.00
44144;BME280;43510;51.920;4.492;2023-01-25T18:23:58;66185.09;;;2.86;100.00
44144;BME280;43510;51.920;4.492;2023-01-25T18:26:33;66192.88;;;2.94;100.00